sensor_id;sensor_type;location;lat;lon;timestamp;pressure;altitude;pressure_sealevel;temperature;humidity
62025;BME280;47978;49.118;12.146;2023-08-21T00:03:52;97930.22;;;19.08;100.00
62025;BME280;47978;49.118;12.146;2023-08-21T00:07:55;97935.94;;;19.12;100.00
62025;BME280;47978;49.118;12.146;2023-08-21T00:11:56;97941.66;;;19.03;100.00
62025;BME280;47978;49.118;12.146;2023-08-21T00:15:58;97930.94;;;18.93;100.00
62025;BME280;47978;49.118;12.146;2023-08-21T00:19:59;97925.69;;;18.91;100.00
62025;BME280;47978;49.118;12.146;2023-08-21T00:24:02;97927.09;;;18.85;100.00
62025;BME280;47978;49.118;12.146;2023-08-21T00:28:05;97931.63;;;18.77;100.00
62025;BME280;47978;49.118;12.146;2023-08-21T00:32:06;97925.69;;;18.79;100.00
62025;BME280;47978;49.118;12.146;2023-08-21T00:36:08;97925.91;;;18.74;100.00
62025;BME280;47978;49.118;12.146;2023-08-21T00:40:11;97930.53;;;18.70;100.00
62025;BME280;47978;49.118;12.146;2023-08-21T00:44:13;97937.94;;;18.74;100.00
62025;BME280;47978;49.118;12.146;2023-08-21T00:48:14;97941.63;;;18.66;100.00
62025;BME280;47978;49.118;12.146;2023-08-21T00:52:16;97935.31;;;18.57;100.00
62025;BME280;47978;49.118;12.146;2023-08-21T00:56:20;97938.34;;;18.52;100.00
62025;BME280;47978;49.118;12.146;2023-08-21T01:00:21;97944.50;;;18.45;100.00
62025;BME280;47978;49.118;12.146;2023-08-21T01:04:24;97935.72;;;18.34;100.00
62025;BME280;47978;49.118;12.146;2023-08-21T01:08:29;97933.75;;;18.35;100.00
62025;BME280;47978;49.118;12.146;2023-08-21T01:12:35;97930.63;;;18.36;100.00
62025;BME280;47978;49.118;12.146;2023-08-21T01:16:40;97937.97;;;18.41;100.00
62025;BME280;47978;49.118;12.146;2023-08-21T01:20:42;97934.56;;;18.35;100.00
62025;BME280;47978;49.118;12.146;2023-08-21T01:24:46;97934.94;;;18.34;100.00
62025;BME280;47978;49.118;12.146;2023-08-21T01:28:47;97933.03;;;18.26;100.00
62025;BME280;47978;49.118;12.146;2023-08-21T01:32:53;97943.53;;;18.29;100.00
62025;BME280;47978;49.118;12.146;2023-08-21T01:37:00;97953.56;;;18.30;100.00
62025;BME280;47978;49.118;12.146;2023-08-21T01:41:03;97950.03;;;18.20;100.00
62025;BME280;47978;49.118;12.146;2023-08-21T01:45:06;97962.28;;;18.16;100.00
62025;BME280;47978;49.118;12.146;2023-08-21T01:49:08;97966.59;;;18.13;100.00
62025;BME280;47978;49.118;12.146;2023-08-21T01:53:09;97957.16;;;18.18;100.00
62025;BME280;47978;49.118;12.146;2023-08-21T01:57:12;97951.22;;;18.19;100.00
62025;BME280;47978;49.118;12.146;2023-08-21T02:01:14;97939.66;;;18.21;100.00
62025;BME280;47978;49.118;12.146;2023-08-21T02:05:16;97939.31;;;18.23;100.00
62025;BME280;47978;49.118;12.146;2023-08-21T02:09:17;97930.94;;;18.23;100.00
62025;BME280;47978;49.118;12.146;2023-08-21T02:13:20;97932.56;;;18.24;100.00
62025;BME280;47978;49.118;12.146;2023-08-21T02:17:21;97938.31;;;18.27;100.00
62025;BME280;47978;49.118;12.146;2023-08-21T02:21:23;97945.22;;;18.42;100.00
62025;BME280;47978;49.118;12.146;2023-08-21T02:25:25;97950.22;;;18.49;100.00
62025;BME280;47978;49.118;12.146;2023-08-21T02:29:27;97941.63;;;18.54;100.00
62025;BME280;47978;49.118;12.146;2023-08-21T02:33:29;97939.88;;;18.61;100.00
62025;BME280;47978;49.118;12.146;2023-08-21T02:37:31;97939.53;;;18.63;100.00
62025;BME280;47978;49.118;12.146;2023-08-21T02:41:32;97952.00;;;18.65;100.00
62025;BME280;47978;49.118;12.146;2023-08-21T02:45:35;97944.78;;;18.64;100.00
62025;BME280;47978;49.118;12.146;2023-08-21T02:49:36;97947.63;;;18.77;100.00
62025;BME280;47978;49.118;12.146;2023-08-21T02:53:38;97954.75;;;18.86;100.00
62025;BME280;47978;49.118;12.146;2023-08-21T02:57:40;97949.97;;;18.87;100.00
62025;BME280;47978;49.118;12.146;2023-08-21T03:01:42;97946.44;;;18.78;100.00
62025;BME280;47978;49.118;12.146;2023-08-21T03:05:44;97948.09;;;18.79;100.00
62025;BME280;47978;49.118;12.146;2023-08-21T03:09:46;97945.28;;;18.79;100.00
62025;BME280;47978;49.118;12.146;2023-08-21T03:13:48;97950.78;;;18.87;100.00
62025;BME280;47978;49.118;12.146;2023-08-21T03:17:51;97949.63;;;18.88;100.00
62025;BME280;47978;49.118;12.146;2023-08-21T03:21:53;97949.13;;;18.86;100.00
62025;BME280;47978;49.118;12.146;2023-08-21T03:25:54;97942.03;;;18.77;100.00
62025;BME280;47978;49.118;12.146;2023-08-21T03:29:56;97950.13;;;18.70;100.00
62025;BME280;47978;49.118;12.146;2023-08-21T03:33:59;97944.69;;;18.73;100.00
62025;BME280;47978;49.118;12.146;2023-08-21T03:38:00;97945.75;;;18.81;100.00
62025;BME280;47978;49.118;12.146;2023-08-21T03:42:02;97950.66;;;18.84;100.00
62025;BME280;47978;49.118;12.146;2023-08-21T03:46:04;97938.88;;;18.91;100.00
62025;BME280;47978;49.118;12.146;2023-08-21T03:50:07;97935.50;;;18.85;100.00
62025;BME280;47978;49.118;12.146;2023-08-21T03:54:09;97940.97;;;18.81;100.00
62025;BME280;47978;49.118;12.146;2023-08-21T03:58:12;97931.53;;;18.98;100.00
62025;BME280;47978;49.118;12.146;2023-08-21T04:02:14;97938.66;;;18.96;100.00
62025;BME280;47978;49.118;12.146;2023-08-21T04:06:17;97940.38;;;18.88;100.00
62025;BME280;47978;49.118;12.146;2023-08-21T04:10:18;97930.59;;;18.82;100.00
62025;BME280;47978;49.118;12.146;2023-08-21T04:14:20;97932.22;;;18.83;100.00
62025;BME280;47978;49.118;12.146;2023-08-21T04:18:22;97944.84;;;19.01;100.00
62025;BME280;47978;49.118;12.146;2023-08-21T04:22:42;97941.34;;;19.04;100.00
62025;BME280;47978;49.118;12.146;2023-08-21T04:26:43;97951.59;;;18.88;100.00
62025;BME280;47978;49.118;12.146;2023-08-21T04:30:45;97951.78;;;18.71;100.00
62025;BME280;47978;49.118;12.146;2023-08-21T04:34:47;97949.31;;;18.57;100.00
62025;BME280;47978;49.118;12.146;2023-08-21T04:38:49;97951.41;;;18.60;100.00
62025;BME280;47978;49.118;12.146;2023-08-21T04:42:51;97956.09;;;18.68;100.00
62025;BME280;47978;49.118;12.146;2023-08-21T04:46:53;97951.59;;;18.76;100.00
62025;BME280;47978;49.118;12.146;2023-08-21T04:50:54;97956.38;;;18.75;100.00
62025;BME280;47978;49.118;12.146;2023-08-21T04:54:57;97958.66;;;18.61;100.00
62025;BME280;47978;49.118;12.146;2023-08-21T04:58:58;97958.91;;;18.56;100.00
62025;BME280;47978;49.118;12.146;2023-08-21T05:03:00;97958.06;;;18.55;100.00
62025;BME280;47978;49.118;12.146;2023-08-21T05:07:02;97961.34;;;18.57;100.00
62025;BME280;47978;49.118;12.146;2023-08-21T05:11:05;97956.31;;;18.63;100.00
62025;BME280;47978;49.118;12.146;2023-08-21T05:15:07;97965.22;;;18.65;100.00
62025;BME280;47978;49.118;12.146;2023-08-21T05:19:09;97971.84;;;18.60;100.00
62025;BME280;47978;49.118;12.146;2023-08-21T05:23:11;97970.00;;;18.64;100.00
62025;BME280;47978;49.118;12.146;2023-08-21T05:27:14;97962.63;;;18.72;100.00
62025;BME280;47978;49.118;12.146;2023-08-21T05:31:15;97966.44;;;18.88;100.00
62025;BME280;47978;49.118;12.146;2023-08-21T05:35:17;97970.25;;;19.45;100.00
62025;BME280;47978;49.118;12.146;2023-08-21T05:39:18;97978.34;;;19.99;100.00
62025;BME280;47978;49.118;12.146;2023-08-21T05:43:21;97974.81;;;20.75;98.50
62025;BME280;47978;49.118;12.146;2023-08-21T05:47:23;97972.03;;;21.06;96.38
62025;BME280;47978;49.118;12.146;2023-08-21T05:51:24;97965.97;;;21.55;92.75
62025;BME280;47978;49.118;12.146;2023-08-21T05:55:26;97973.53;;;22.06;90.55
62025;BME280;47978;49.118;12.146;2023-08-21T05:59:30;97981.59;;;22.47;86.21
62025;BME280;47978;49.118;12.146;2023-08-21T06:03:32;97980.84;;;23.42;81.05
62025;BME280;47978;49.118;12.146;2023-08-21T06:07:34;97983.66;;;25.41;72.34
62025;BME280;47978;49.118;12.146;2023-08-21T06:11:36;97982.81;;;27.11;65.57
62025;BME280;47978;49.118;12.146;2023-08-21T06:15:39;97982.00;;;28.85;59.67
62025;BME280;47978;49.118;12.146;2023-08-21T06:19:40;97988.88;;;27.74;61.57
62025;BME280;47978;49.118;12.146;2023-08-21T06:23:42;97981.59;;;27.05;64.43
62025;BME280;47978;49.118;12.146;2023-08-21T06:27:43;97981.69;;;29.76;59.43
62025;BME280;47978;49.118;12.146;2023-08-21T06:32:00;97988.50;;;31.20;52.56
62025;BME280;47978;49.118;12.146;2023-08-21T06:36:02;97981.13;;;31.19;52.65
62025;BME280;47978;49.118;12.146;2023-08-21T06:40:05;97981.56;;;32.55;49.51
62025;BME280;47978;49.118;12.146;2023-08-21T06:44:07;97994.09;;;33.17;46.50
62025;BME280;47978;49.118;12.146;2023-08-21T06:48:10;97991.84;;;33.08;48.69
62025;BME280;47978;49.118;12.146;2023-08-21T06:52:11;97988.91;;;33.61;46.13
62025;BME280;47978;49.118;12.146;2023-08-21T06:56:13;97994.59;;;32.56;49.05
62025;BME280;47978;49.118;12.146;2023-08-21T07:00:15;97981.03;;;32.40;48.47
62025;BME280;47978;49.118;12.146;2023-08-21T07:04:18;97975.69;;;31.28;52.62
62025;BME280;47978;49.118;12.146;2023-08-21T07:08:19;97983.56;;;31.47;51.51
62025;BME280;47978;49.118;12.146;2023-08-21T07:12:21;97972.97;;;32.91;50.39
62025;BME280;47978;49.118;12.146;2023-08-21T07:16:23;97975.09;;;34.18;45.76
62025;BME280;47978;49.118;12.146;2023-08-21T07:20:26;97981.47;;;33.31;47.91
62025;BME280;47978;49.118;12.146;2023-08-21T07:24:27;97982.78;;;33.75;47.80
62025;BME280;47978;49.118;12.146;2023-08-21T07:28:29;97977.91;;;33.59;47.25
62025;BME280;47978;49.118;12.146;2023-08-21T07:32:30;97976.72;;;35.28;42.80
62025;BME280;47978;49.118;12.146;2023-08-21T07:36:33;97977.25;;;33.85;46.27
62025;BME280;47978;49.118;12.146;2023-08-21T07:40:35;97985.41;;;34.74;43.85
62025;BME280;47978;49.118;12.146;2023-08-21T07:44:36;97982.03;;;35.55;41.57
62025;BME280;47978;49.118;12.146;2023-08-21T07:48:38;97980.16;;;36.09;40.95
62025;BME280;47978;49.118;12.146;2023-08-21T07:52:41;97989.00;;;34.48;45.34
62025;BME280;47978;49.118;12.146;2023-08-21T07:56:43;97986.38;;;33.96;46.06
62025;BME280;47978;49.118;12.146;2023-08-21T08:00:44;97978.88;;;35.97;40.96
62025;BME280;47978;49.118;12.146;2023-08-21T08:04:47;97987.63;;;34.53;44.49
62025;BME280;47978;49.118;12.146;2023-08-21T08:08:49;97990.81;;;34.42;43.29
62025;BME280;47978;49.118;12.146;2023-08-21T08:12:51;97986.38;;;36.08;40.92
62025;BME280;47978;49.118;12.146;2023-08-21T08:16:52;97977.75;;;35.47;42.05
62025;BME280;47978;49.118;12.146;2023-08-21T08:20:54;97987.19;;;35.35;41.95
62025;BME280;47978;49.118;12.146;2023-08-21T08:24:57;97986.19;;;34.61;43.45
62025;BME280;47978;49.118;12.146;2023-08-21T08:28:59;97990.97;;;35.32;42.75
62025;BME280;47978;49.118;12.146;2023-08-21T08:33:00;97987.69;;;34.24;43.17
62025;BME280;47978;49.118;12.146;2023-08-21T08:37:02;97993.56;;;33.88;44.75
62025;BME280;47978;49.118;12.146;2023-08-21T08:41:09;97988.81;;;33.81;44.83
62025;BME280;47978;49.118;12.146;2023-08-21T08:45:13;97975.38;;;33.45;45.27
62025;BME280;47978;49.118;12.146;2023-08-21T08:49:15;97987.78;;;33.58;46.41
62025;BME280;47978;49.118;12.146;2023-08-21T08:53:18;97987.50;;;31.30;50.57
62025;BME280;47978;49.118;12.146;2023-08-21T08:57:21;97991.50;;;31.36;53.11
62025;BME280;47978;49.118;12.146;2023-08-21T09:01:23;97988.50;;;32.14;50.39
62025;BME280;47978;49.118;12.146;2023-08-21T09:05:24;97989.81;;;31.39;51.86
62025;BME280;47978;49.118;12.146;2023-08-21T09:09:26;97985.47;;;31.03;52.94
62025;BME280;47978;49.118;12.146;2023-08-21T09:13:30;97979.75;;;30.73;55.26
62025;BME280;47978;49.118;12.146;2023-08-21T09:17:33;97987.78;;;31.39;54.03
62025;BME280;47978;49.118;12.146;2023-08-21T09:21:34;97984.75;;;30.65;54.13
62025;BME280;47978;49.118;12.146;2023-08-21T09:25:37;97981.56;;;30.59;56.76
62025;BME280;47978;49.118;12.146;2023-08-21T09:29:41;97982.44;;;30.87;55.27
62025;BME280;47978;49.118;12.146;2023-08-21T09:33:43;97979.44;;;30.67;53.83
62025;BME280;47978;49.118;12.146;2023-08-21T09:37:46;97984.19;;;30.46;54.57
62025;BME280;47978;49.118;12.146;2023-08-21T09:41:54;97974.66;;;30.57;55.50
62025;BME280;47978;49.118;12.146;2023-08-21T09:45:58;97983.72;;;30.17;55.91
62025;BME280;47978;49.118;12.146;2023-08-21T09:49:59;97969.53;;;31.06;51.79
62025;BME280;47978;49.118;12.146;2023-08-21T09:54:02;97977.69;;;30.77;52.41
62025;BME280;47978;49.118;12.146;2023-08-21T09:58:04;97965.84;;;31.05;51.51
62025;BME280;47978;49.118;12.146;2023-08-21T10:02:07;97963.63;;;31.17;50.79
62025;BME280;47978;49.118;12.146;2023-08-21T10:06:11;97961.81;;;31.77;50.92
62025;BME280;47978;49.118;12.146;2023-08-21T10:10:12;97954.31;;;31.12;48.50
62025;BME280;47978;49.118;12.146;2023-08-21T10:14:16;97945.94;;;31.72;49.57
62025;BME280;47978;49.118;12.146;2023-08-21T10:18:20;97942.13;;;31.79;48.38
62025;BME280;47978;49.118;12.146;2023-08-21T10:22:39;97941.63;;;31.84;51.22
62025;BME280;47978;49.118;12.146;2023-08-21T10:26:43;97946.50;;;31.17;49.42
62025;BME280;47978;49.118;12.146;2023-08-21T10:30:48;97935.97;;;31.10;49.89
62025;BME280;47978;49.118;12.146;2023-08-21T10:34:53;97935.41;;;31.19;50.10
62025;BME280;47978;49.118;12.146;2023-08-21T10:39:01;97935.59;;;31.08;50.29
62025;BME280;47978;49.118;12.146;2023-08-21T10:43:03;97927.72;;;31.15;48.09
62025;BME280;47978;49.118;12.146;2023-08-21T10:47:17;97929.28;;;31.20;47.83
62025;BME280;47978;49.118;12.146;2023-08-21T10:51:20;97926.50;;;30.89;50.04
62025;BME280;47978;49.118;12.146;2023-08-21T10:55:22;97920.06;;;31.09;50.16
62025;BME280;47978;49.118;12.146;2023-08-21T10:59:24;97926.75;;;31.49;51.57
62025;BME280;47978;49.118;12.146;2023-08-21T11:03:25;97919.50;;;31.88;49.38
62025;BME280;47978;49.118;12.146;2023-08-21T11:07:28;97918.88;;;30.83;50.02
62025;BME280;47978;49.118;12.146;2023-08-21T11:11:30;97924.38;;;31.21;50.64
62025;BME280;47978;49.118;12.146;2023-08-21T11:15:32;97924.53;;;31.80;48.37
62025;BME280;47978;49.118;12.146;2023-08-21T11:19:34;97914.91;;;31.94;49.71
62025;BME280;47978;49.118;12.146;2023-08-21T11:23:39;97918.50;;;31.28;50.88
62025;BME280;47978;49.118;12.146;2023-08-21T11:27:41;97910.72;;;31.32;49.67
62025;BME280;47978;49.118;12.146;2023-08-21T11:31:45;97909.19;;;31.51;51.59
62025;BME280;47978;49.118;12.146;2023-08-21T11:35:47;97907.81;;;31.35;50.64
62025;BME280;47978;49.118;12.146;2023-08-21T11:39:51;97896.34;;;30.88;51.75
62025;BME280;47978;49.118;12.146;2023-08-21T11:44:01;97900.34;;;30.64;48.36
62025;BME280;47978;49.118;12.146;2023-08-21T11:48:03;97898.16;;;31.26;52.32
62025;BME280;47978;49.118;12.146;2023-08-21T11:52:05;97895.25;;;31.06;49.22
62025;BME280;47978;49.118;12.146;2023-08-21T11:56:13;97891.06;;;31.10;47.87
62025;BME280;47978;49.118;12.146;2023-08-21T12:00:15;97891.50;;;31.09;48.10
62025;BME280;47978;49.118;12.146;2023-08-21T12:04:17;97894.22;;;31.16;48.89
62025;BME280;47978;49.118;12.146;2023-08-21T12:08:18;97901.19;;;31.42;47.46
62025;BME280;47978;49.118;12.146;2023-08-21T12:12:22;97884.19;;;31.75;46.66
62025;BME280;47978;49.118;12.146;2023-08-21T12:16:23;97884.19;;;31.75;47.67
62025;BME280;47978;49.118;12.146;2023-08-21T12:20:25;97878.78;;;31.80;47.43
62025;BME280;47978;49.118;12.146;2023-08-21T12:24:27;97877.38;;;31.89;44.88
62025;BME280;47978;49.118;12.146;2023-08-21T12:28:30;97875.56;;;32.18;47.24
62025;BME280;47978;49.118;12.146;2023-08-21T12:32:31;97876.78;;;31.77;45.62
62025;BME280;47978;49.118;12.146;2023-08-21T12:36:34;97866.47;;;32.03;47.75
62025;BME280;47978;49.118;12.146;2023-08-21T12:40:36;97870.31;;;31.97;46.48
62025;BME280;47978;49.118;12.146;2023-08-21T12:44:39;97866.38;;;31.87;45.56
62025;BME280;47978;49.118;12.146;2023-08-21T12:48:40;97858.97;;;31.70;45.32
62025;BME280;47978;49.118;12.146;2023-08-21T12:52:42;97860.31;;;31.65;45.59
62025;BME280;47978;49.118;12.146;2023-08-21T12:56:43;97859.63;;;31.77;44.90
62025;BME280;47978;49.118;12.146;2023-08-21T13:00:47;97863.09;;;31.69;44.39
62025;BME280;47978;49.118;12.146;2023-08-21T13:04:48;97863.09;;;31.69;44.45
62025;BME280;47978;49.118;12.146;2023-08-21T13:08:50;97856.19;;;31.66;45.46
62025;BME280;47978;49.118;12.146;2023-08-21T13:12:51;97851.38;;;32.03;44.91
62025;BME280;47978;49.118;12.146;2023-08-21T13:16:54;97859.03;;;32.26;46.19
62025;BME280;47978;49.118;12.146;2023-08-21T13:20:56;97845.81;;;32.32;43.71
62025;BME280;47978;49.118;12.146;2023-08-21T13:24:57;97846.72;;;32.09;43.51
62025;BME280;47978;49.118;12.146;2023-08-21T13:28:59;97843.88;;;31.89;43.54
62025;BME280;47978;49.118;12.146;2023-08-21T13:33:02;97840.28;;;31.85;44.93
62025;BME280;47978;49.118;12.146;2023-08-21T13:37:04;97835.81;;;32.04;45.57
62025;BME280;47978;49.118;12.146;2023-08-21T13:41:06;97823.47;;;31.87;43.39
62025;BME280;47978;49.118;12.146;2023-08-21T13:45:09;97826.31;;;31.91;43.54
62025;BME280;47978;49.118;12.146;2023-08-21T13:49:12;97817.75;;;32.07;43.16
62025;BME280;47978;49.118;12.146;2023-08-21T13:53:13;97820.56;;;32.27;44.47
62025;BME280;47978;49.118;12.146;2023-08-21T13:57:15;97815.28;;;32.45;42.93
62025;BME280;47978;49.118;12.146;2023-08-21T14:01:16;97806.59;;;32.13;42.86
62025;BME280;47978;49.118;12.146;2023-08-21T14:05:19;97798.97;;;32.06;43.06
62025;BME280;47978;49.118;12.146;2023-08-21T14:09:21;97798.69;;;32.00;43.12
62025;BME280;47978;49.118;12.146;2023-08-21T14:13:22;97803.16;;;32.38;43.67
62025;BME280;47978;49.118;12.146;2023-08-21T14:17:24;97795.97;;;31.93;43.43
62025;BME280;47978;49.118;12.146;2023-08-21T14:21:27;97798.22;;;32.38;44.67
62025;BME280;47978;49.118;12.146;2023-08-21T14:25:29;97793.47;;;32.32;46.74
62025;BME280;47978;49.118;12.146;2023-08-21T14:29:30;97795.00;;;32.20;45.97
62025;BME280;47978;49.118;12.146;2023-08-21T14:33:32;97798.16;;;32.42;49.71
62025;BME280;47978;49.118;12.146;2023-08-21T14:37:35;97778.56;;;32.40;44.18
62025;BME280;47978;49.118;12.146;2023-08-21T14:41:37;97785.00;;;31.92;44.63
62025;BME280;47978;49.118;12.146;2023-08-21T14:45:38;97785.53;;;32.39;45.55
62025;BME280;47978;49.118;12.146;2023-08-21T14:49:40;97790.66;;;32.64;44.96
62025;BME280;47978;49.118;12.146;2023-08-21T14:53:43;97784.34;;;32.20;44.86
62025;BME280;47978;49.118;12.146;2023-08-21T14:57:44;97786.25;;;31.91;46.01
62025;BME280;47978;49.118;12.146;2023-08-21T15:01:46;97792.25;;;31.56;48.20
62025;BME280;47978;49.118;12.146;2023-08-21T15:05:47;97797.53;;;31.58;48.17
62025;BME280;47978;49.118;12.146;2023-08-21T15:09:50;97793.25;;;31.86;47.15
62025;BME280;47978;49.118;12.146;2023-08-21T15:13:52;97791.38;;;32.16;46.68
62025;BME280;47978;49.118;12.146;2023-08-21T15:17:53;97788.19;;;32.30;46.44
62025;BME280;47978;49.118;12.146;2023-08-21T15:21:55;97787.16;;;32.04;45.91
62025;BME280;47978;49.118;12.146;2023-08-21T15:25:58;97786.84;;;31.42;49.53
62025;BME280;47978;49.118;12.146;2023-08-21T15:29:59;97783.31;;;31.54;47.63
62025;BME280;47978;49.118;12.146;2023-08-21T15:34:01;97780.97;;;31.49;48.61
62025;BME280;47978;49.118;12.146;2023-08-21T15:38:05;97785.13;;;31.45;48.05
62025;BME280;47978;49.118;12.146;2023-08-21T15:42:08;97777.06;;;31.40;48.14
62025;BME280;47978;49.118;12.146;2023-08-21T15:46:10;97782.09;;;30.88;51.40
62025;BME280;47978;49.118;12.146;2023-08-21T15:50:11;97779.38;;;30.78;58.59
62025;BME280;47978;49.118;12.146;2023-08-21T15:54:13;97770.16;;;30.93;52.94
62025;BME280;47978;49.118;12.146;2023-08-21T15:58:16;97767.84;;;31.08;52.49
62025;BME280;47978;49.118;12.146;2023-08-21T16:02:17;97775.56;;;30.88;52.34
62025;BME280;47978;49.118;12.146;2023-08-21T16:06:19;97764.44;;;30.93;48.61
62025;BME280;47978;49.118;12.146;2023-08-21T16:10:20;97768.16;;;30.90;53.22
62025;BME280;47978;49.118;12.146;2023-08-21T16:14:23;97762.25;;;30.78;52.86
62025;BME280;47978;49.118;12.146;2023-08-21T16:18:25;97761.31;;;30.61;51.37
62025;BME280;47978;49.118;12.146;2023-08-21T16:22:26;97769.03;;;30.37;56.12
62025;BME280;47978;49.118;12.146;2023-08-21T16:26:28;97756.34;;;30.65;53.09
62025;BME280;47978;49.118;12.146;2023-08-21T16:30:31;97755.84;;;30.46;58.08
62025;BME280;47978;49.118;12.146;2023-08-21T16:34:32;97752.84;;;30.30;60.50
62025;BME280;47978;49.118;12.146;2023-08-21T16:38:34;97745.47;;;30.33;57.25
62025;BME280;47978;49.118;12.146;2023-08-21T16:42:37;97749.34;;;29.92;61.10
62025;BME280;47978;49.118;12.146;2023-08-21T16:46:40;97747.06;;;29.79;61.15
62025;BME280;47978;49.118;12.146;2023-08-21T16:50:42;97756.91;;;29.06;62.30
62025;BME280;47978;49.118;12.146;2023-08-21T16:54:43;97756.00;;;29.13;66.11
62025;BME280;47978;49.118;12.146;2023-08-21T16:58:45;97755.47;;;28.84;62.68
62025;BME280;47978;49.118;12.146;2023-08-21T17:02:47;97746.03;;;28.90;65.50
62025;BME280;47978;49.118;12.146;2023-08-21T17:06:49;97754.41;;;28.67;66.81
62025;BME280;47978;49.118;12.146;2023-08-21T17:10:51;97750.50;;;28.50;65.94
62025;BME280;47978;49.118;12.146;2023-08-21T17:14:52;97755.84;;;28.37;66.10
62025;BME280;47978;49.118;12.146;2023-08-21T17:18:55;97743.75;;;28.30;66.20
62025;BME280;47978;49.118;12.146;2023-08-21T17:22:57;97758.44;;;28.21;67.21
62025;BME280;47978;49.118;12.146;2023-08-21T17:26:59;97760.25;;;27.90;69.26
62025;BME280;47978;49.118;12.146;2023-08-21T17:31:02;97767.97;;;27.86;72.35
62025;BME280;47978;49.118;12.146;2023-08-21T17:35:06;97758.50;;;27.26;72.59
62025;BME280;47978;49.118;12.146;2023-08-21T17:39:07;97767.88;;;26.83;75.86
62025;BME280;47978;49.118;12.146;2023-08-21T17:43:09;97759.00;;;26.60;77.32
62025;BME280;47978;49.118;12.146;2023-08-21T17:47:11;97762.22;;;26.30;79.57
62025;BME280;47978;49.118;12.146;2023-08-21T17:51:14;97768.69;;;26.09;80.60
62025;BME280;47978;49.118;12.146;2023-08-21T17:55:15;97767.03;;;25.90;81.72
62025;BME280;47978;49.118;12.146;2023-08-21T17:59:17;97767.75;;;25.72;82.78
62025;BME280;47978;49.118;12.146;2023-08-21T18:03:18;97772.13;;;25.48;84.20
62025;BME280;47978;49.118;12.146;2023-08-21T18:07:21;97771.66;;;25.35;85.45
62025;BME280;47978;49.118;12.146;2023-08-21T18:11:23;97775.66;;;25.24;85.36
62025;BME280;47978;49.118;12.146;2023-08-21T18:15:24;97779.94;;;24.96;86.71
62025;BME280;47978;49.118;12.146;2023-08-21T18:19:26;97777.03;;;24.85;87.56
62025;BME280;47978;49.118;12.146;2023-08-21T18:23:47;97787.78;;;24.62;88.37
62025;BME280;47978;49.118;12.146;2023-08-21T18:27:49;97796.53;;;24.46;89.89
62025;BME280;47978;49.118;12.146;2023-08-21T18:31:50;97795.16;;;24.29;90.86
62025;BME280;47978;49.118;12.146;2023-08-21T18:35:52;97802.34;;;24.19;90.97
62025;BME280;47978;49.118;12.146;2023-08-21T18:39:55;97807.41;;;24.03;92.35
62025;BME280;47978;49.118;12.146;2023-08-21T18:43:57;97808.91;;;23.93;92.75
62025;BME280;47978;49.118;12.146;2023-08-21T18:47:58;97816.84;;;23.81;93.30
62025;BME280;47978;49.118;12.146;2023-08-21T18:52:00;97819.97;;;23.72;93.41
62025;BME280;47978;49.118;12.146;2023-08-21T18:56:03;97814.56;;;23.60;94.41
62025;BME280;47978;49.118;12.146;2023-08-21T19:00:06;97823.25;;;23.47;94.58
62025;BME280;47978;49.118;12.146;2023-08-21T19:04:07;97817.47;;;23.37;94.61
62025;BME280;47978;49.118;12.146;2023-08-21T19:08:09;97815.31;;;23.23;96.10
62025;BME280;47978;49.118;12.146;2023-08-21T19:12:12;97820.88;;;23.19;96.03
62025;BME280;47978;49.118;12.146;2023-08-21T19:16:13;97814.75;;;23.13;95.82
62025;BME280;47978;49.118;12.146;2023-08-21T19:20:15;97815.78;;;23.02;96.28
62025;BME280;47978;49.118;12.146;2023-08-21T19:24:16;97815.66;;;22.95;96.99
62025;BME280;47978;49.118;12.146;2023-08-21T19:28:19;97812.56;;;22.77;97.46
62025;BME280;47978;49.118;12.146;2023-08-21T19:32:21;97814.53;;;22.73;97.60
62025;BME280;47978;49.118;12.146;2023-08-21T19:36:22;97824.09;;;22.68;98.24
62025;BME280;47978;49.118;12.146;2023-08-21T19:40:24;97816.34;;;22.61;98.22
62025;BME280;47978;49.118;12.146;2023-08-21T19:44:28;97825.13;;;22.56;98.06
62025;BME280;47978;49.118;12.146;2023-08-21T19:48:30;97826.28;;;22.52;98.29
62025;BME280;47978;49.118;12.146;2023-08-21T19:52:31;97831.41;;;22.46;98.99
62025;BME280;47978;49.118;12.146;2023-08-21T19:56:33;97826.84;;;22.38;99.10
62025;BME280;47978;49.118;12.146;2023-08-21T20:00:40;97827.50;;;22.31;98.75
62025;BME280;47978;49.118;12.146;2023-08-21T20:04:41;97830.16;;;22.20;100.00
62025;BME280;47978;49.118;12.146;2023-08-21T20:08:43;97830.00;;;22.13;100.00
62025;BME280;47978;49.118;12.146;2023-08-21T20:12:44;97830.28;;;22.08;100.00
62025;BME280;47978;49.118;12.146;2023-08-21T20:16:47;97831.44;;;22.04;100.00
62025;BME280;47978;49.118;12.146;2023-08-21T20:20:50;97831.28;;;21.96;100.00
62025;BME280;47978;49.118;12.146;2023-08-21T20:24:51;97832.09;;;21.97;100.00
62025;BME280;47978;49.118;12.146;2023-08-21T20:28:54;97833.59;;;21.91;100.00
62025;BME280;47978;49.118;12.146;2023-08-21T20:32:57;97834.63;;;21.83;100.00
62025;BME280;47978;49.118;12.146;2023-08-21T20:36:58;97840.13;;;21.75;100.00
62025;BME280;47978;49.118;12.146;2023-08-21T20:41:04;97843.69;;;21.72;100.00
62025;BME280;47978;49.118;12.146;2023-08-21T20:45:07;97838.38;;;21.67;100.00
62025;BME280;47978;49.118;12.146;2023-08-21T20:49:10;97835.31;;;21.56;100.00
62025;BME280;47978;49.118;12.146;2023-08-21T20:53:12;97829.56;;;21.49;100.00
62025;BME280;47978;49.118;12.146;2023-08-21T20:57:13;97827.84;;;21.45;100.00
62025;BME280;47978;49.118;12.146;2023-08-21T21:01:15;97826.88;;;21.37;100.00
62025;BME280;47978;49.118;12.146;2023-08-21T21:05:18;97831.69;;;21.37;100.00